Time;durP1;ratioP1;P1;durP2;ratioP2;P2;SDS_P1;SDS_P2;PMS_P1;PMS_P2;Temp;Humidity;BMP_temperature;BMP_pressure;BME280_temperature;BME280_humidity;BME280_pressure;Samples;Min_cycle;Max_cycle;Signal;HPM_P1;HPM_P2
2021/09/29 02:46:52;;;;;;;47.55;25.77;;;14.50;99.50;;;;;;5062174;24;20539;-79
2021/09/29 02:49:18;;;;;;;37.00;25.58;;;14.50;99.50;;;;;;4732905;30;20044;-79
2021/09/29 02:51:44;;;;;;;37.90;23.92;;;14.50;99.50;;;;;;4715722;30;20111;-79
2021/09/29 02:54:10;;;;;;;39.65;25.42;;;14.50;99.50;;;;;;4730272;30;20037;-79
2021/09/29 02:56:36;;;;;;;42.47;26.50;;;14.40;99.50;;;;;;4730473;30;20021;-79
2021/09/29 02:59:02;;;;;;;39.88;25.17;;;14.50;99.90;;;;;;4730201;30;20032;-79
2021/09/29 03:01:28;;;;;;;42.07;25.43;;;14.50;99.90;;;;;;4730368;30;20344;-79
2021/09/29 03:03:54;;;;;;;34.78;22.13;;;14.50;99.90;;;;;;4730454;30;20306;-79
2021/09/29 03:06:19;;;;;;;39.47;22.60;;;14.50;99.90;;;;;;4730741;30;20346;-79
2021/09/29 03:08:45;;;;;;;39.78;22.10;;;14.50;99.90;;;;;;4730630;30;20324;-79
2021/09/29 03:11:11;;;;;;;45.13;24.45;;;14.50;99.90;;;;;;4730498;30;20283;-79
2021/09/29 03:13:37;;;;;;;40.08;23.20;;;14.50;99.90;;;;;;4730493;30;20044;-79
2021/09/29 03:16:03;;;;;;;45.38;23.55;;;14.50;99.90;;;;;;4733593;30;20036;-79
2021/09/29 03:18:28;;;;;;;48.33;27.45;;;14.50;99.90;;;;;;4733556;30;20036;-79
2021/09/29 03:20:54;;;;;;;56.63;32.83;;;14.50;99.80;;;;;;4733332;30;20078;-79
2021/09/29 03:23:20;;;;;;;54.17;33.00;;;14.50;99.80;;;;;;4764138;30;20035;-80
2021/09/29 03:25:46;;;;;;;50.75;32.80;;;14.50;99.90;;;;;;4733346;30;20032;-79
2021/09/29 03:28:12;;;;;;;52.67;31.10;;;14.50;99.90;;;;;;4748063;30;20049;-79
2021/09/29 03:30:37;;;;;;;56.42;31.00;;;14.50;99.90;;;;;;4733287;30;20043;-79
2021/09/29 03:33:07;;;;;;;70.13;33.65;;;14.50;99.90;;;;;;4733143;30;20095;-79
2021/09/29 03:35:34;;;;;;;54.30;30.85;;;14.50;99.90;;;;;;4747895;30;20303;-80
2021/09/29 03:38:01;;;;;;;56.58;33.05;;;14.50;99.90;;;;;;4747989;30;20034;-80
2021/09/29 03:40:27;;;;;;;54.67;31.07;;;14.50;99.80;;;;;;4748174;30;20108;-79
2021/09/29 03:42:52;;;;;;;52.13;29.60;;;14.50;99.80;;;;;;4733209;30;20024;-79
2021/09/29 03:45:18;;;;;;;56.20;30.48;;;14.50;99.70;;;;;;4732983;30;20031;-79
2021/09/29 03:47:44;;;;;;;62.88;32.83;;;14.50;99.70;;;;;;4732476;30;20028;-79
2021/09/29 03:50:12;;;;;;;50.83;29.77;;;14.50;99.80;;;;;;4715816;30;20220;-79
2021/09/29 03:52:38;;;;;;;49.55;30.55;;;14.40;99.80;;;;;;4730126;30;20039;-79
2021/09/29 03:55:05;;;;;;;52.83;27.45;;;14.50;99.90;;;;;;4730096;30;20086;-80
2021/09/29 03:57:31;;;;;;;49.70;27.70;;;14.40;99.90;;;;;;4715523;30;20047;-79
2021/09/29 03:59:57;;;;;;;51.33;29.45;;;14.40;99.90;;;;;;4729549;30;20037;-79
2021/09/29 04:02:23;;;;;;;49.95;29.25;;;14.40;99.80;;;;;;4729494;30;20044;-79
2021/09/29 04:04:48;;;;;;;48.92;28.02;;;14.40;99.90;;;;;;4729840;30;20150;-79
2021/09/29 04:07:14;;;;;;;52.97;28.33;;;14.50;99.80;;;;;;4730210;30;20037;-79
2021/09/29 04:09:40;;;;;;;42.05;27.67;;;14.40;99.70;;;;;;4729241;30;20328;-79
2021/09/29 04:12:06;;;;;;;53.25;29.17;;;14.50;99.60;;;;;;4715379;30;20095;-79
2021/09/29 04:14:32;;;;;;;56.50;30.63;;;14.40;99.50;;;;;;4730131;30;20110;-79
2021/09/29 04:16:58;;;;;;;47.13;29.70;;;14.40;99.50;;;;;;4729850;30;20047;-79
2021/09/29 04:19:24;;;;;;;42.95;26.40;;;14.30;99.50;;;;;;4729884;30;20208;-79
2021/09/29 04:21:50;;;;;;;38.90;26.38;;;14.30;99.60;;;;;;4729960;30;20051;-79
2021/09/29 04:24:16;;;;;;;46.15;27.38;;;14.30;99.60;;;;;;4729669;30;20047;-79
2021/09/29 04:26:42;;;;;;;40.38;26.98;;;14.30;99.70;;;;;;4729904;30;20092;-81
2021/09/29 04:29:08;;;;;;;50.53;26.05;;;14.20;99.60;;;;;;4729890;30;20093;-81
2021/09/29 04:31:34;;;;;;;38.13;22.52;;;14.20;99.60;;;;;;4729962;30;20071;-80
2021/09/29 04:34:00;;;;;;;42.75;23.02;;;14.20;99.50;;;;;;4729827;30;20235;-81
2021/09/29 04:36:25;;;;;;;37.80;21.70;;;14.20;99.60;;;;;;4729470;30;20063;-80
2021/09/29 04:38:51;;;;;;;45.15;22.00;;;14.20;99.70;;;;;;4729755;30;20036;-81
2021/09/29 04:41:17;;;;;;;40.95;22.55;;;14.20;99.70;;;;;;4730007;30;20277;-81
2021/09/29 04:43:43;;;;;;;44.47;21.77;;;14.20;99.60;;;;;;4729798;30;20235;-81
2021/09/29 04:46:09;;;;;;;43.53;23.88;;;14.20;99.60;;;;;;4711277;30;20100;-81
2021/09/29 04:48:34;;;;;;;39.58;22.77;;;14.20;99.70;;;;;;4728106;30;20033;-80
2021/09/29 04:51:00;;;;;;;38.97;21.58;;;14.10;99.70;;;;;;4713025;30;20202;-81
2021/09/29 04:53:26;;;;;;;39.72;22.83;;;14.10;99.80;;;;;;4712849;30;20047;-81
2021/09/29 04:55:52;;;;;;;36.58;19.13;;;14.10;99.60;;;;;;4713050;30;20033;-81
2021/09/29 04:58:17;;;;;;;31.60;17.75;;;14.10;99.50;;;;;;4712574;30;20243;-79
2021/09/29 05:00:43;;;;;;;40.38;20.05;;;14.10;99.70;;;;;;4713849;30;20033;-79
2021/09/29 05:03:10;;;;;;;34.92;18.70;;;14.10;99.60;;;;;;4728696;30;20039;-80
2021/09/29 05:05:36;;;;;;;35.30;18.75;;;14.10;99.50;;;;;;4730893;30;20029;-80
2021/09/29 05:08:05;;;;;;;46.03;19.52;;;14.10;99.50;;;;;;4745365;30;20295;-79
2021/09/29 05:10:49;;;;;;;38.88;18.27;;;14.20;99.40;;;;;;4759087;30;20096;-80
2021/09/29 05:13:22;;;;;;;39.20;18.65;;;14.10;99.40;;;;;;4759488;30;20044;-80
2021/09/29 05:15:48;;;;;;;36.45;19.60;;;14.20;99.40;;;;;;4750159;30;20049;-80
2021/09/29 05:18:15;;;;;;;32.50;18.80;;;14.20;99.30;;;;;;4750486;30;20122;-80
2021/09/29 05:20:40;;;;;;;37.17;18.50;;;14.20;99.40;;;;;;4766518;30;20058;-80
2021/09/29 05:23:06;;;;;;;32.88;19.17;;;14.30;99.40;;;;;;4750450;30;20059;-80
2021/09/29 05:25:32;;;;;;;38.63;18.50;;;14.30;99.10;;;;;;4735665;30;20060;-81
2021/09/29 05:27:59;;;;;;;40.05;18.63;;;14.30;99.30;;;;;;4730140;30;20343;-81
2021/09/29 05:30:25;;;;;;;35.65;18.13;;;14.30;98.80;;;;;;4739962;30;20036;-80
2021/09/29 05:32:51;;;;;;;38.22;16.48;;;14.20;98.90;;;;;;4745585;30;20035;-81
2021/09/29 05:35:17;;;;;;;29.83;17.50;;;14.20;99.20;;;;;;4732590;30;20040;-78
2021/09/29 05:37:43;;;;;;;31.00;17.85;;;14.30;99.30;;;;;;4731944;30;20036;-79
2021/09/29 05:40:10;;;;;;;30.38;16.67;;;14.50;99.20;;;;;;4747450;30;20028;-79
2021/09/29 05:42:35;;;;;;;34.47;18.23;;;14.60;98.70;;;;;;4732471;30;20036;-79
2021/09/29 05:45:02;;;;;;;31.45;17.63;;;14.60;98.50;;;;;;4735266;30;20074;-79
2021/09/29 05:47:28;;;;;;;32.03;18.60;;;14.70;98.20;;;;;;4756594;30;20056;-79
2021/09/29 05:49:53;;;;;;;38.53;18.17;;;14.70;98.00;;;;;;4746824;30;20041;-79
2021/09/29 05:52:19;;;;;;;34.47;18.55;;;14.70;98.00;;;;;;4746807;30;20089;-79
2021/09/29 05:54:45;;;;;;;33.53;16.50;;;14.70;98.40;;;;;;4730948;30;20068;-80
2021/09/29 05:57:13;;;;;;;30.70;16.83;;;14.80;98.30;;;;;;4717598;30;20040;-80
2021/09/29 05:59:39;;;;;;;24.25;16.25;;;14.90;98.00;;;;;;4731750;30;20236;-79
2021/09/29 06:02:05;;;;;;;34.88;17.45;;;15.00;97.50;;;;;;4732130;30;20232;-79
2021/09/29 06:04:31;;;;;;;30.25;15.98;;;15.00;97.30;;;;;;4746847;30;20099;-79
2021/09/29 06:06:58;;;;;;;33.42;18.60;;;15.00;96.80;;;;;;4747524;30;20029;-80
2021/09/29 06:09:24;;;;;;;33.05;17.75;;;15.00;96.70;;;;;;4732132;30;20044;-79
2021/09/29 06:11:50;;;;;;;39.75;16.50;;;15.00;97.00;;;;;;4729104;30;20033;-79
2021/09/29 06:14:16;;;;;;;27.95;16.05;;;15.00;97.30;;;;;;4731750;30;20021;-79
2021/09/29 06:16:47;;;;;;;35.85;16.65;;;15.10;97.40;;;;;;4739208;30;20106;-80
2021/09/29 06:19:16;;;;;;;34.03;16.63;;;15.30;97.20;;;;;;4731701;30;20028;-80
2021/09/29 06:21:44;;;;;;;22.63;15.05;;;15.50;96.40;;;;;;4749241;30;20035;-80
2021/09/29 06:24:11;;;;;;;26.38;16.95;;;15.50;96.30;;;;;;4731075;30;20289;-80
2021/09/29 06:26:37;;;;;;;29.90;15.82;;;15.50;96.20;;;;;;4731836;30;20260;-80
2021/09/29 06:29:03;;;;;;;31.80;16.85;;;15.60;96.50;;;;;;4731538;30;20267;-80
2021/09/29 06:31:29;;;;;;;38.20;16.70;;;15.60;96.30;;;;;;4743377;30;20033;-80
2021/09/29 06:33:54;;;;;;;28.98;16.50;;;15.70;96.10;;;;;;4746416;30;20382;-80
2021/09/29 06:36:20;;;;;;;33.58;16.90;;;15.80;95.90;;;;;;4717598;30;20104;-80
2021/09/29 06:38:46;;;;;;;29.90;17.48;;;15.90;96.10;;;;;;4731769;30;20232;-80
2021/09/29 06:41:12;;;;;;;28.77;17.20;;;16.00;96.00;;;;;;4732568;30;20257;-80
2021/09/29 06:43:38;;;;;;;28.15;15.63;;;16.10;95.60;;;;;;4731518;30;20294;-81
2021/09/29 06:46:03;;;;;;;27.65;16.27;;;16.10;95.00;;;;;;4731781;30;20055;-81
2021/09/29 06:48:29;;;;;;;36.05;17.73;;;16.20;95.50;;;;;;4737234;30;20033;-81
2021/09/29 06:50:55;;;;;;;34.53;18.17;;;16.30;95.20;;;;;;4746060;30;20037;-79
2021/09/29 06:53:23;;;;;;;32.70;17.08;;;16.40;94.50;;;;;;4731265;30;20032;-80
2021/09/29 06:55:49;;;;;;;34.63;17.60;;;16.30;94.90;;;;;;4747103;30;20324;-81
2021/09/29 06:58:18;;;;;;;36.03;17.20;;;16.40;95.10;;;;;;4731403;30;20079;-80
2021/09/29 07:00:44;;;;;;;31.52;19.63;;;16.40;94.20;;;;;;4716578;30;20060;-80
2021/09/29 07:03:13;;;;;;;41.65;18.90;;;16.30;94.50;;;;;;4745252;30;20032;-80
2021/09/29 07:05:39;;;;;;;28.52;17.90;;;16.40;95.40;;;;;;4731320;30;20228;-80
2021/09/29 07:08:05;;;;;;;45.67;23.90;;;16.60;95.30;;;;;;4730844;30;20029;-81
2021/09/29 07:10:31;;;;;;;45.80;25.00;;;16.70;94.70;;;;;;4745662;30;20051;-80
2021/09/29 07:12:58;;;;;;;48.40;25.00;;;16.80;94.90;;;;;;4731157;30;20036;-81
2021/09/29 07:15:25;;;;;;;53.97;30.75;;;16.80;94.70;;;;;;4731418;30;20047;-81
2021/09/29 07:17:56;;;;;;;62.05;31.60;;;16.90;94.90;;;;;;4747319;30;20043;-81
2021/09/29 07:20:22;;;;;;;48.70;28.65;;;16.90;95.30;;;;;;4734646;30;20032;-81
2021/09/29 07:22:48;;;;;;;56.35;32.33;;;16.90;95.50;;;;;;4749149;30;20399;-80
2021/09/29 07:25:14;;;;;;;53.55;29.05;;;17.00;95.50;;;;;;4764954;30;20036;-80
2021/09/29 07:27:40;;;;;;;52.80;31.50;;;17.10;95.80;;;;;;4748829;30;20027;-81
2021/09/29 07:30:07;;;;;;;62.70;32.30;;;17.40;96.10;;;;;;4749038;30;20036;-81
2021/09/29 07:32:33;;;;;;;54.80;31.35;;;17.60;95.50;;;;;;4748881;30;20058;-82
2021/09/29 07:34:59;;;;;;;68.90;39.75;;;17.80;94.80;;;;;;4765136;30;20331;-82
2021/09/29 07:37:25;;;;;;;72.07;39.08;;;17.80;94.70;;;;;;4733118;30;20059;-82
2021/09/29 07:39:51;;;;;;;66.35;36.22;;;17.90;95.00;;;;;;4733403;30;20032;-82
2021/09/29 07:42:18;;;;;;;79.38;38.47;;;18.00;94.80;;;;;;4748588;30;20032;-82
2021/09/29 07:44:43;;;;;;;70.17;38.87;;;18.10;94.60;;;;;;4733743;30;20028;-82
2021/09/29 07:47:09;;;;;;;77.20;44.58;;;18.10;94.50;;;;;;4747709;30;20290;-82
2021/09/29 07:49:35;;;;;;;98.28;49.17;;;18.00;94.50;;;;;;4719612;30;20036;-81
2021/09/29 07:52:01;;;;;;;94.10;50.05;;;17.80;94.90;;;;;;4730554;30;20041;-82
2021/09/29 07:54:27;;;;;;;91.43;49.45;;;17.60;95.10;;;;;;4730446;30;20032;-81
2021/09/29 07:56:54;;;;;;;87.63;49.95;;;17.60;95.50;;;;;;4730387;30;20111;-81
2021/09/29 07:59:20;;;;;;;97.93;52.50;;;17.60;95.40;;;;;;4730644;30;20363;-82
2021/09/29 08:01:46;;;;;;;95.10;50.10;;;17.50;95.70;;;;;;4730249;30;20032;-82
2021/09/29 08:04:12;;;;;;;100.35;50.75;;;17.40;95.70;;;;;;4730390;30;20112;-81
2021/09/29 08:06:38;;;;;;;97.72;51.20;;;17.50;95.90;;;;;;4730153;30;20328;-81
2021/09/29 08:09:04;;;;;;;94.03;49.28;;;17.60;95.90;;;;;;4730473;30;20063;-82
2021/09/29 08:11:29;;;;;;;97.97;50.05;;;17.60;95.60;;;;;;4730008;30;20032;-81
2021/09/29 08:13:55;;;;;;;97.65;50.97;;;17.50;95.60;;;;;;4730163;30;20213;-82
2021/09/29 08:16:21;;;;;;;96.20;49.97;;;17.60;95.70;;;;;;4734129;30;20040;-82
2021/09/29 08:18:47;;;;;;;92.38;47.90;;;17.70;95.90;;;;;;4699705;30;20156;-81
2021/09/29 08:21:17;;;;;;;92.05;49.63;;;17.80;96.20;;;;;;4729468;30;20149;-82
2021/09/29 08:23:48;;;;;;;95.50;47.47;;;17.90;95.70;;;;;;4715885;30;20029;-82
2021/09/29 08:28:46;;;;;;;88.97;44.97;;;17.90;94.70;;;;;;4730457;30;20043;-82
2021/09/29 08:31:20;;;;;;;76.88;43.38;;;17.80;95.10;;;;;;4730300;30;20032;-82
2021/09/29 08:36:43;;;;;;;74.57;40.30;;;18.10;95.70;;;;;;4730126;30;20086;-83
2021/09/29 08:39:16;;;;;;;78.13;40.38;;;18.40;95.00;;;;;;4730515;30;20055;-83
2021/09/29 08:44:20;;;;;;;79.13;41.03;;;18.70;93.10;;;;;;4730450;30;20063;-82
2021/09/29 08:49:33;;;;;;;84.45;43.92;;;18.60;93.40;;;;;;4731642;30;20049;-82
2021/09/29 08:52:24;;;;;;;81.15;43.75;;;18.70;93.70;;;;;;4716249;30;20041;-82
2021/09/29 09:16:40;;;;;;;83.35;43.55;;;18.70;94.00;;;;;;4748884;30;20032;-82
2021/09/29 09:19:12;;;;;;;73.25;40.95;;;18.80;93.00;;;;;;4747424;30;20047;-82
2021/09/29 09:21:54;;;;;;;83.10;44.55;;;18.70;93.80;;;;;;4748990;30;20025;-82
2021/09/29 09:24:23;;;;;;;84.68;45.25;;;18.90;93.70;;;;;;4716157;30;20029;-82
2021/09/29 09:27:03;;;;;;;85.50;45.50;;;19.00;93.80;;;;;;4715532;30;20325;-82
2021/09/29 09:29:30;;;;;;;82.20;43.42;;;18.90;92.90;;;;;;4701376;30;20162;-82
2021/09/29 09:32:07;;;;;;;78.10;42.95;;;18.80;93.50;;;;;;4715339;30;20352;-82
2021/09/29 09:34:33;;;;;;;77.45;40.97;;;18.80;93.80;;;;;;4715744;30;20028;-82
2021/09/29 09:36:59;;;;;;;82.38;42.08;;;18.80;93.90;;;;;;4733033;30;20328;-82
2021/09/29 09:39:27;;;;;;;80.75;40.72;;;18.90;93.60;;;;;;4732078;30;20032;-82
2021/09/29 09:41:59;;;;;;;74.95;39.47;;;18.90;93.30;;;;;;4732227;30;20037;-82
2021/09/29 09:44:27;;;;;;;78.35;38.67;;;18.90;93.60;;;;;;4732239;30;20043;-82
2021/09/29 09:47:07;;;;;;;77.90;39.33;;;19.00;93.70;;;;;;4741212;30;20052;-82
2021/09/29 09:49:49;;;;;;;74.68;39.03;;;19.20;93.30;;;;;;4735437;30;20047;-82
2021/09/29 09:52:32;;;;;;;63.05;36.67;;;19.40;93.00;;;;;;4735000;30;20036;-82
2021/09/29 09:55:06;;;;;;;61.75;35.58;;;19.40;92.50;;;;;;4734306;30;20507;-82
2021/09/29 09:57:34;;;;;;;69.57;36.95;;;19.30;92.80;;;;;;4734582;30;20320;-82
2021/09/29 10:00:00;;;;;;;62.92;35.17;;;19.30;93.10;;;;;;4749178;30;20036;-82
2021/09/29 10:02:41;;;;;;;63.63;36.93;;;19.40;92.60;;;;;;4735060;30;20028;-82
2021/09/29 10:05:09;;;;;;;66.35;34.30;;;19.40;92.40;;;;;;4728731;30;20316;-82
2021/09/29 10:07:34;;;;;;;63.70;35.33;;;19.40;92.90;;;;;;4729931;30;20033;-82
2021/09/29 10:10:13;;;;;;;63.05;36.28;;;19.50;93.00;;;;;;4714894;30;20091;-82
2021/09/29 10:23:50;;;;;;;26.95;14.90;;;19.80;93.00;;;;;;4731932;30;20066;-83
2021/09/29 10:26:25;;;;;;;20.05;11.90;;;19.80;92.90;;;;;;4731925;30;20040;-83
2021/09/29 10:29:03;;;;;;;18.33;11.75;;;19.70;92.80;;;;;;4717383;30;20033;-83
2021/09/29 10:34:22;;;;;;;20.17;10.75;;;19.60;92.80;;;;;;4747097;30;20051;-83
2021/09/29 10:37:14;;;;;;;16.40;11.02;;;19.60;92.90;;;;;;4731975;30;20029;-82
2021/09/29 10:45:27;;;;;;;16.63;9.73;;;19.80;92.00;;;;;;4731588;30;20040;-82
2021/09/29 11:27:24;;;;;;;9.88;6.57;;;21.00;90.80;;;;;;4711447;30;20033;-82
2021/09/29 11:31:57;;;;;;;11.18;5.70;;;20.80;90.10;;;;;;4712435;30;20033;-81
2021/09/29 11:34:30;;;;;;;8.23;5.95;;;20.80;90.20;;;;;;4710986;30;20041;-81
2021/09/29 12:10:06;;;;;;;9.32;5.32;;;20.90;88.60;;;;;;4744737;30;20063;-82
2021/09/29 12:12:36;;;;;;;8.18;5.68;;;20.80;88.70;;;;;;4742080;30;20095;-82
2021/09/29 12:15:06;;;;;;;8.43;6.18;;;20.80;89.20;;;;;;4727414;30;20103;-82
2021/09/29 12:17:39;;;;;;;6.82;5.43;;;20.70;89.40;;;;;;4749515;30;20037;-85
2021/09/29 12:20:25;;;;;;;6.90;5.28;;;20.80;89.90;;;;;;4745583;30;20221;-84
2021/09/29 12:22:56;;;;;;;8.75;6.00;;;20.90;89.60;;;;;;4745988;30;20043;-84
2021/09/29 12:25:44;;;;;;;8.68;6.05;;;21.10;89.10;;;;;;4749457;30;20041;-84
2021/09/29 12:28:24;;;;;;;10.15;5.25;;;21.10;88.70;;;;;;4733784;30;20098;-85
2021/09/29 12:36:27;;;;;;;5.87;4.90;;;21.10;88.50;;;;;;4738197;30;20049;-82
2021/09/29 12:38:54;;;;;;;9.25;4.50;;;21.20;88.30;;;;;;4733737;30;20154;-82
2021/09/29 12:41:19;;;;;;;6.05;4.90;;;21.20;87.70;;;;;;4748657;30;20036;-82
2021/09/29 12:43:45;;;;;;;8.98;4.68;;;21.10;87.90;;;;;;4747973;30;20082;-83
2021/09/29 12:46:18;;;;;;;6.18;4.32;;;20.90;88.70;;;;;;4736958;30;20059;-82
2021/09/29 12:48:45;;;;;;;5.95;4.47;;;20.90;88.70;;;;;;4745630;30;20033;-83
2021/09/29 12:51:14;;;;;;;5.57;3.85;;;20.90;88.80;;;;;;4748074;30;20032;-82
2021/09/29 12:56:15;;;;;;;6.95;4.18;;;20.90;89.30;;;;;;4748176;30;20028;-83
2021/09/29 12:58:41;;;;;;;6.25;4.38;;;20.80;89.30;;;;;;4733312;30;20115;-82
2021/09/29 13:01:08;;;;;;;4.53;3.95;;;20.60;89.70;;;;;;4748266;30;20328;-82
2021/09/29 13:03:34;;;;;;;6.63;3.20;;;20.60;90.20;;;;;;4748010;30;20032;-81
2021/09/29 13:06:00;;;;;;;8.10;3.47;;;20.60;90.40;;;;;;4748175;30;20098;-82
2021/09/29 13:08:27;;;;;;;4.07;3.35;;;20.70;90.30;;;;;;4744824;30;20043;-82
2021/09/29 13:10:54;;;;;;;6.03;3.45;;;20.60;90.20;;;;;;4730168;30;20048;-82
2021/09/29 13:13:20;;;;;;;6.55;3.13;;;20.80;90.40;;;;;;4730127;30;20033;-81
2021/09/29 13:15:50;;;;;;;10.83;3.50;;;20.70;90.00;;;;;;4732429;30;20143;-81
2021/09/29 13:18:30;;;;;;;7.72;2.90;;;20.60;90.00;;;;;;4750143;30;20028;-81
2021/09/29 13:21:05;;;;;;;10.60;3.70;;;20.60;90.20;;;;;;4741066;30;20090;-81
2021/09/29 13:23:35;;;;;;;5.20;3.08;;;20.60;90.20;;;;;;4733035;30;20037;-81
2021/09/29 13:36:42;;;;;;;5.18;3.10;;;20.50;90.20;;;;;;4747650;30;20037;-81
2021/09/29 13:39:17;;;;;;;9.68;3.35;;;20.50;90.00;;;;;;4746914;30;20052;-81
2021/09/29 13:41:44;;;;;;;7.00;3.47;;;20.50;89.80;;;;;;4732458;30;20224;-81
2021/09/29 13:44:11;;;;;;;7.80;3.15;;;20.50;89.40;;;;;;4732359;30;20420;-81
2021/09/29 13:46:39;;;;;;;;;;;20.50;89.50;;;;;;4725439;30;20076;-81
2021/09/29 13:49:07;;;;;;;6.15;3.08;;;20.50;89.80;;;;;;4731911;30;19911;-82
2021/09/29 13:51:34;;;;;;;3.20;2.78;;;20.50;89.60;;;;;;4729478;30;20036;-82
2021/09/29 13:54:07;;;;;;;4.18;3.28;;;20.50;89.20;;;;;;4746948;30;20039;-82
2021/09/29 13:59:38;;;;;;;7.10;3.35;;;20.50;89.30;;;;;;4714132;30;20037;-81
2021/09/29 14:29:35;;;;;;;5.28;3.03;;;20.80;89.20;;;;;;4747113;30;20044;-81
2021/09/29 14:34:52;;;;;;;5.63;2.95;;;20.60;88.70;;;;;;4728279;30;20120;-81
2021/09/29 14:37:18;;;;;;;4.78;3.22;;;20.60;89.30;;;;;;4728100;30;20040;-81
2021/09/29 14:39:44;;;;;;;5.25;3.65;;;20.60;89.00;;;;;;4695376;30;20045;-80
2021/09/29 14:42:10;;;;;;;8.30;3.50;;;20.60;88.90;;;;;;4681003;30;20136;-81
2021/09/29 14:44:36;;;;;;;5.75;3.38;;;20.50;89.10;;;;;;4696559;30;20380;-80
2021/09/29 14:47:09;;;;;;;4.82;2.90;;;20.50;90.00;;;;;;4702350;30;20061;-81
2021/09/29 14:49:39;;;;;;;6.03;3.00;;;20.50;89.70;;;;;;4711445;30;20095;-82
2021/09/29 14:52:05;;;;;;;5.68;3.47;;;20.60;90.00;;;;;;4710796;30;20051;-81
2021/09/29 14:54:31;;;;;;;4.68;2.70;;;20.60;89.70;;;;;;4710489;30;20029;-81
2021/09/29 14:56:58;;;;;;;7.38;3.28;;;20.60;90.00;;;;;;4696153;30;20289;-81
2021/09/29 14:59:23;;;;;;;7.03;3.15;;;20.70;89.60;;;;;;4710346;30;20049;-81
2021/09/29 15:01:49;;;;;;;9.45;2.85;;;20.70;89.30;;;;;;4710211;30;20402;-81
2021/09/29 15:04:15;;;;;;;6.15;2.92;;;20.70;89.30;;;;;;4695954;30;20216;-81
2021/09/29 15:06:41;;;;;;;13.07;3.55;;;20.80;89.40;;;;;;4710670;30;20087;-81
2021/09/29 15:09:07;;;;;;;6.60;3.60;;;20.80;89.60;;;;;;4710539;30;20215;-81
2021/09/29 15:11:33;;;;;;;5.93;3.15;;;20.80;87.50;;;;;;4723410;30;20045;-82
2021/09/29 15:14:11;;;;;;;7.88;2.92;;;20.60;87.30;;;;;;4741519;30;20068;-82
2021/09/29 15:16:58;;;;;;;7.30;2.88;;;20.50;87.80;;;;;;4734321;30;20312;-81
2021/09/29 15:27:25;;;;;;;4.15;2.17;;;20.30;87.20;;;;;;4745073;30;20032;-82
2021/09/29 15:51:23;;;;;;;4.53;2.30;;;20.00;86.40;;;;;;4709712;30;20038;-81
2021/09/29 15:54:14;;;;;;;4.95;2.28;;;20.00;84.90;;;;;;4709275;30;20084;-81
2021/09/29 16:05:06;;;;;;;5.18;2.67;;;19.70;84.30;;;;;;4691920;30;20053;-82
2021/09/29 16:13:18;;;;;;;7.55;2.65;;;19.60;84.50;;;;;;4692203;30;20041;-82
2021/09/29 16:18:22;;;;;;;5.93;2.25;;;19.50;84.50;;;;;;4724681;30;20081;-81
2021/09/29 16:31:47;;;;;;;5.95;2.22;;;19.20;83.70;;;;;;4753093;30;20236;-82
2021/09/29 16:36:42;;;;;;;5.68;2.60;;;19.10;84.30;;;;;;4739578;30;19941;-82
2021/09/29 16:39:08;;;;;;;6.63;2.80;;;19.10;84.40;;;;;;4741850;30;20039;-81
2021/09/29 16:41:34;;;;;;;6.47;2.47;;;19.10;84.30;;;;;;4729999;30;20032;-82
2021/09/29 16:44:00;;;;;;;6.10;3.35;;;19.00;84.40;;;;;;4744706;30;20090;-82
2021/09/29 16:46:31;;;;;;;5.90;2.90;;;19.00;84.80;;;;;;4730538;30;20052;-82
2021/09/29 16:48:56;;;;;;;6.13;2.30;;;19.00;84.50;;;;;;4746494;30;20041;-83
2021/09/29 16:51:26;;;;;;;5.07;2.75;;;19.00;84.90;;;;;;4742345;30;20064;-83
2021/09/29 16:53:56;;;;;;;5.95;2.60;;;18.90;84.40;;;;;;4739553;30;20103;-81
2021/09/29 16:56:22;;;;;;;7.15;3.15;;;18.90;85.00;;;;;;4744975;30;20064;-82
2021/09/29 16:58:57;;;;;;;9.38;3.47;;;18.90;84.70;;;;;;4743416;30;20036;-82
2021/09/29 17:01:27;;;;;;;3.83;2.92;;;18.90;84.40;;;;;;4727270;30;20056;-83
2021/09/29 17:03:53;;;;;;;7.07;3.22;;;18.90;84.70;;;;;;4731051;30;20033;-83
2021/09/29 17:06:18;;;;;;;5.30;3.00;;;18.80;84.50;;;;;;4726263;30;20110;-82
2021/09/29 17:08:44;;;;;;;5.00;2.45;;;18.90;84.70;;;;;;4752382;30;20043;-82
2021/09/29 17:11:12;;;;;;;7.63;2.53;;;18.80;83.90;;;;;;4748313;30;20115;-82
2021/09/29 17:13:40;;;;;;;3.35;2.15;;;18.80;84.00;;;;;;4739853;30;20061;-82
2021/09/29 17:16:10;;;;;;;7.20;2.40;;;18.70;84.40;;;;;;4747246;30;20040;-83
2021/09/29 17:18:37;;;;;;;3.83;2.60;;;18.70;84.10;;;;;;4746328;30;20032;-82
2021/09/29 17:21:04;;;;;;;8.50;2.30;;;18.70;84.00;;;;;;4739705;30;20052;-82
2021/09/29 17:23:34;;;;;;;4.95;2.10;;;18.70;83.50;;;;;;4755332;30;20041;-82
2021/09/29 17:26:01;;;;;;;5.03;2.50;;;18.70;83.80;;;;;;4760110;30;20052;-82
2021/09/29 17:28:27;;;;;;;5.10;1.92;;;18.70;84.10;;;;;;4742389;30;20041;-82
2021/09/29 17:30:58;;;;;;;3.47;2.30;;;18.60;83.50;;;;;;4744752;30;20073;-83
2021/09/29 17:35:59;;;;;;;3.53;1.85;;;18.60;83.50;;;;;;4754414;30;20037;-81
2021/09/29 17:38:53;;;;;;;7.68;1.80;;;18.60;83.50;;;;;;4754619;30;20036;-82
2021/09/29 17:52:25;;;;;;;4.65;1.80;;;18.60;84.20;;;;;;4741938;30;20055;-82
2021/09/29 17:54:51;;;;;;;4.07;1.67;;;18.60;84.10;;;;;;4755310;30;20359;-82
2021/09/29 17:57:18;;;;;;;4.68;1.90;;;18.60;83.90;;;;;;4740068;30;20416;-82
2021/09/29 17:59:47;;;;;;;3.70;1.88;;;18.60;84.10;;;;;;4739627;30;20112;-82
2021/09/29 18:02:17;;;;;;;5.15;1.70;;;18.50;84.10;;;;;;4735962;30;20024;-82
2021/09/29 18:04:46;;;;;;;4.13;1.80;;;18.50;84.20;;;;;;4733554;30;20045;-81
2021/09/29 18:07:24;;;;;;;5.35;1.90;;;18.60;83.80;;;;;;4750964;30;20025;-82
2021/09/29 18:09:51;;;;;;;6.50;1.60;;;18.60;83.80;;;;;;4742542;30;20029;-81
2021/09/29 18:12:18;;;;;;;4.00;2.08;;;18.60;83.90;;;;;;4742138;30;20033;-81
2021/09/29 18:14:44;;;;;;;3.72;1.67;;;18.50;83.70;;;;;;4736408;30;20032;-82
2021/09/29 18:17:10;;;;;;;3.63;1.70;;;18.50;83.80;;;;;;4747258;30;20040;-82
2021/09/29 18:19:38;;;;;;;5.18;1.67;;;18.60;84.60;;;;;;4751612;30;20036;-82
2021/09/29 18:22:05;;;;;;;4.07;2.20;;;18.60;83.20;;;;;;4743897;30;20035;-82
2021/09/29 18:24:31;;;;;;;8.80;2.17;;;18.60;83.70;;;;;;4732655;30;20039;-82
2021/09/29 18:26:57;;;;;;;2.90;1.27;;;18.60;83.10;;;;;;4742438;30;20085;-81
2021/09/29 18:29:24;;;;;;;5.27;1.57;;;18.50;82.50;;;;;;4740124;30;20049;-82
2021/09/29 18:31:51;;;;;;;6.60;2.08;;;18.50;82.60;;;;;;4744293;30;20306;-82
2021/09/29 18:34:19;;;;;;;4.75;1.70;;;18.50;82.30;;;;;;4745185;30;20317;-82
2021/09/29 18:36:46;;;;;;;4.22;2.05;;;18.50;82.30;;;;;;4748701;30;20036;-81
2021/09/29 18:39:15;;;;;;;7.57;1.80;;;18.50;82.10;;;;;;4740182;30;20031;-82
2021/09/29 18:41:41;;;;;;;5.50;1.75;;;18.40;81.90;;;;;;4722641;30;20048;-81
2021/09/29 18:44:12;;;;;;;2.60;1.63;;;18.40;82.90;;;;;;4724421;30;20025;-81
2021/09/29 18:46:39;;;;;;;7.38;2.65;;;18.50;81.80;;;;;;4736818;30;20052;-81
2021/09/29 18:49:08;;;;;;;6.47;2.05;;;18.40;82.00;;;;;;4722379;30;20225;-82
2021/09/29 18:51:41;;;;;;;5.00;2.20;;;18.40;82.60;;;;;;4727014;30;20044;-81
2021/09/29 18:54:14;;;;;;;3.90;1.80;;;18.40;83.30;;;;;;4743445;30;20032;-81
2021/09/29 19:09:44;;;;;;;5.55;1.52;;;18.30;82.00;;;;;;4726767;30;20037;-82
2021/09/29 19:12:10;;;;;;;4.63;1.80;;;18.30;81.80;;;;;;4740271;30;20041;-82
2021/09/29 19:14:41;;;;;;;5.50;2.27;;;18.30;81.80;;;;;;4714910;30;20028;-82
2021/09/29 19:17:07;;;;;;;8.13;1.70;;;18.30;82.00;;;;;;4729818;30;20037;-82
2021/09/29 19:19:32;;;;;;;6.65;1.60;;;18.30;82.00;;;;;;4733219;30;20058;-82
2021/09/29 19:21:58;;;;;;;4.43;1.88;;;18.20;80.70;;;;;;4740315;30;20338;-82
2021/09/29 19:24:24;;;;;;;4.50;1.85;;;18.20;81.00;;;;;;4735705;30;20091;-82
2021/09/29 19:26:51;;;;;;;4.38;1.80;;;18.20;81.00;;;;;;4733680;30;20013;-82
2021/09/29 19:29:17;;;;;;;;;;;18.10;81.00;;;;;;4715435;30;20059;-83
2021/09/29 19:31:43;;;;;;;5.53;2.27;;;18.10;81.00;;;;;;4723677;30;19910;-83
2021/09/29 19:34:09;;;;;;;4.10;1.63;;;18.00;81.30;;;;;;4750031;30;20028;-82
2021/09/29 19:36:35;;;;;;;4.18;1.55;;;18.00;81.40;;;;;;4717737;30;20063;-83
2021/09/29 19:39:01;;;;;;;4.20;1.60;;;18.00;81.80;;;;;;4730996;30;20046;-82
2021/09/29 19:41:27;;;;;;;5.25;2.22;;;18.00;81.90;;;;;;4731259;30;20064;-83
2021/09/29 19:43:53;;;;;;;6.30;1.60;;;17.90;81.80;;;;;;4730819;30;20033;-83
